sensor_id;sensor_type;location;lat;lon;timestamp;pressure;altitude;pressure_sealevel;temperature;humidity
41688;BME280;27371;42.686;23.362;2023-04-28T00:01:47;164016.78;;;6.98;49.95
41688;BME280;27371;42.686;23.362;2023-04-28T00:04:13;164011.44;;;6.96;49.97
41688;BME280;27371;42.686;23.362;2023-04-28T00:06:38;163890.13;;;6.50;50.12
41688;BME280;27371;42.686;23.362;2023-04-28T00:09:05;163988.78;;;6.87;50.29
41688;BME280;27371;42.686;23.362;2023-04-28T00:11:34;163987.47;;;6.87;50.06
41688;BME280;27371;42.686;23.362;2023-04-28T00:14:00;163983.44;;;6.85;50.13
41688;BME280;27371;42.686;23.362;2023-04-28T00:16:25;163971.44;;;6.81;50.50
41688;BME280;27371;42.686;23.362;2023-04-28T00:18:51;163959.47;;;6.76;50.68
41688;BME280;27371;42.686;23.362;2023-04-28T00:21:17;163923.47;;;6.62;50.77
41688;BME280;27371;42.686;23.362;2023-04-28T00:23:42;163922.16;;;6.62;50.81
41688;BME280;27371;42.686;23.362;2023-04-28T00:26:07;163912.78;;;6.58;50.79
41688;BME280;27371;42.686;23.362;2023-04-28T00:28:33;163884.78;;;6.47;50.96
41688;BME280;27371;42.686;23.362;2023-04-28T00:30:59;163879.50;;;6.45;51.20
41688;BME280;27371;42.686;23.362;2023-04-28T00:33:24;163830.16;;;6.27;51.31
41688;BME280;27371;42.686;23.362;2023-04-28T00:35:57;163830.16;;;6.27;51.43
41688;BME280;27371;42.686;23.362;2023-04-28T00:38:23;163819.47;;;6.22;51.63
41688;BME280;27371;42.686;23.362;2023-04-28T00:40:49;163787.53;;;6.10;51.73
41688;BME280;27371;42.686;23.362;2023-04-28T00:43:15;163843.50;;;6.32;51.94
41688;BME280;27371;42.686;23.362;2023-04-28T00:45:40;163820.81;;;6.23;52.09
41688;BME280;27371;42.686;23.362;2023-04-28T00:48:06;163820.81;;;6.23;52.35
41688;BME280;27371;42.686;23.362;2023-04-28T00:50:32;163795.50;;;6.13;52.38
41688;BME280;27371;42.686;23.362;2023-04-28T00:52:59;163718.16;;;5.84;52.05
41688;BME280;27371;42.686;23.362;2023-04-28T00:55:25;163642.25;;;5.54;52.18
41688;BME280;27371;42.686;23.362;2023-04-28T00:57:54;163768.84;;;6.03;52.66
41688;BME280;27371;42.686;23.362;2023-04-28T01:00:20;163783.50;;;6.09;52.78
41688;BME280;27371;42.686;23.362;2023-04-28T01:02:46;163776.84;;;6.06;53.07
41688;BME280;27371;42.686;23.362;2023-04-28T01:05:12;163764.88;;;6.01;52.83
41688;BME280;27371;42.686;23.362;2023-04-28T01:07:39;163756.88;;;5.98;53.04
41688;BME280;27371;42.686;23.362;2023-04-28T01:10:04;163747.53;;;5.95;53.12
41688;BME280;27371;42.686;23.362;2023-04-28T01:12:31;163735.50;;;5.90;53.39
41688;BME280;27371;42.686;23.362;2023-04-28T01:14:57;163723.50;;;5.86;53.67
41688;BME280;27371;42.686;23.362;2023-04-28T01:17:22;163719.47;;;5.84;53.77
41688;BME280;27371;42.686;23.362;2023-04-28T01:19:48;163714.19;;;5.82;53.82
41688;BME280;27371;42.686;23.362;2023-04-28T01:22:13;163672.88;;;5.66;53.87
41688;BME280;27371;42.686;23.362;2023-04-28T01:24:41;163702.19;;;5.77;53.83
41688;BME280;27371;42.686;23.362;2023-04-28T01:27:06;163664.91;;;5.63;54.17
41688;BME280;27371;42.686;23.362;2023-04-28T01:29:32;163690.19;;;5.73;54.12
41688;BME280;27371;42.686;23.362;2023-04-28T01:31:57;163683.50;;;5.70;54.41
41688;BME280;27371;42.686;23.362;2023-04-28T01:34:23;163680.88;;;5.69;54.20
41688;BME280;27371;42.686;23.362;2023-04-28T01:36:48;163659.56;;;5.61;53.97
41688;BME280;27371;42.686;23.362;2023-04-28T01:39:14;163683.50;;;5.70;54.33
41688;BME280;27371;42.686;23.362;2023-04-28T01:41:39;163679.53;;;5.69;54.13
41688;BME280;27371;42.686;23.362;2023-04-28T01:44:05;163640.88;;;5.54;54.17
41688;BME280;27371;42.686;23.362;2023-04-28T01:46:32;163648.91;;;5.57;54.05
41688;BME280;27371;42.686;23.362;2023-04-28T01:48:57;163667.53;;;5.64;53.98
41688;BME280;27371;42.686;23.362;2023-04-28T01:51:23;163648.91;;;5.57;54.06
41688;BME280;27371;42.686;23.362;2023-04-28T01:53:49;163646.22;;;5.56;54.21
41688;BME280;27371;42.686;23.362;2023-04-28T01:56:14;163615.59;;;5.44;54.23
41688;BME280;27371;42.686;23.362;2023-04-28T01:58:40;163636.91;;;5.52;54.29
41688;BME280;27371;42.686;23.362;2023-04-28T02:01:05;163642.25;;;5.54;54.34
41688;BME280;27371;42.686;23.362;2023-04-28T02:03:31;163630.25;;;5.50;54.32
41688;BME280;27371;42.686;23.362;2023-04-28T02:05:57;163615.59;;;5.44;54.36
41688;BME280;27371;42.686;23.362;2023-04-28T02:08:22;163619.56;;;5.46;54.76
41688;BME280;27371;42.686;23.362;2023-04-28T02:10:48;163598.31;;;5.38;54.46
41688;BME280;27371;42.686;23.362;2023-04-28T02:13:13;163457.13;;;4.83;54.75
41688;BME280;27371;42.686;23.362;2023-04-28T02:15:40;163607.63;;;5.41;54.55
41688;BME280;27371;42.686;23.362;2023-04-28T02:18:06;163603.59;;;5.40;54.94
41688;BME280;27371;42.686;23.362;2023-04-28T02:20:32;163603.59;;;5.40;54.71
41688;BME280;27371;42.686;23.362;2023-04-28T02:22:57;163549.03;;;5.19;54.55
41688;BME280;27371;42.686;23.362;2023-04-28T02:25:22;163599.63;;;5.38;54.54
41688;BME280;27371;42.686;23.362;2023-04-28T02:27:48;163592.97;;;5.35;54.48
41688;BME280;27371;42.686;23.362;2023-04-28T02:30:13;163598.31;;;5.38;54.25
41688;BME280;27371;42.686;23.362;2023-04-28T02:32:39;163590.28;;;5.34;54.27
41688;BME280;27371;42.686;23.362;2023-04-28T02:35:05;163521.03;;;5.08;54.49
41688;BME280;27371;42.686;23.362;2023-04-28T02:37:30;163586.31;;;5.33;54.52
41688;BME280;27371;42.686;23.362;2023-04-28T02:39:56;163557.00;;;5.22;54.60
41688;BME280;27371;42.686;23.362;2023-04-28T02:42:22;163541.03;;;5.16;55.19
41688;BME280;27371;42.686;23.362;2023-04-28T02:44:47;163552.97;;;5.20;54.95
41688;BME280;27371;42.686;23.362;2023-04-28T02:47:13;163551.66;;;5.20;54.85
41688;BME280;27371;42.686;23.362;2023-04-28T02:49:38;163560.97;;;5.23;55.01
41688;BME280;27371;42.686;23.362;2023-04-28T02:52:04;163474.41;;;4.90;55.27
41688;BME280;27371;42.686;23.362;2023-04-28T02:54:29;163545.00;;;5.17;55.80
41688;BME280;27371;42.686;23.362;2023-04-28T02:56:57;163517.03;;;5.06;55.63
41688;BME280;27371;42.686;23.362;2023-04-28T02:59:23;163531.69;;;5.12;55.49
41688;BME280;27371;42.686;23.362;2023-04-28T03:01:49;163537.00;;;5.14;55.35
41688;BME280;27371;42.686;23.362;2023-04-28T03:04:16;163509.03;;;5.03;55.23
41688;BME280;27371;42.686;23.362;2023-04-28T03:06:41;163525.00;;;5.09;55.32
41688;BME280;27371;42.686;23.362;2023-04-28T03:09:08;163551.66;;;5.20;55.63
41688;BME280;27371;42.686;23.362;2023-04-28T03:11:34;163551.66;;;5.20;55.57
41688;BME280;27371;42.686;23.362;2023-04-28T03:14:00;163515.72;;;5.06;55.62
41688;BME280;27371;42.686;23.362;2023-04-28T03:16:26;163545.00;;;5.17;55.58
41688;BME280;27371;42.686;23.362;2023-04-28T03:18:51;163523.69;;;5.09;55.83
41688;BME280;27371;42.686;23.362;2023-04-28T03:21:17;163527.72;;;5.10;55.89
41688;BME280;27371;42.686;23.362;2023-04-28T03:23:42;163505.09;;;5.02;55.97
41688;BME280;27371;42.686;23.362;2023-04-28T03:26:08;163462.47;;;4.85;56.04
41688;BME280;27371;42.686;23.362;2023-04-28T03:28:33;163542.34;;;5.16;56.03
41688;BME280;27371;42.686;23.362;2023-04-28T03:30:59;163543.69;;;5.17;55.96
41688;BME280;27371;42.686;23.362;2023-04-28T03:33:24;163510.38;;;5.04;56.00
41688;BME280;27371;42.686;23.362;2023-04-28T03:35:50;163519.72;;;5.07;55.83
41688;BME280;27371;42.686;23.362;2023-04-28T03:38:15;163551.66;;;5.20;55.85
41688;BME280;27371;42.686;23.362;2023-04-28T03:40:41;163563.66;;;5.24;55.70
41688;BME280;27371;42.686;23.362;2023-04-28T03:43:06;163555.69;;;5.21;55.39
41688;BME280;27371;42.686;23.362;2023-04-28T03:45:32;163578.31;;;5.30;55.25
41688;BME280;27371;42.686;23.362;2023-04-28T03:47:57;163566.31;;;5.25;55.42
41688;BME280;27371;42.686;23.362;2023-04-28T03:50:23;163591.63;;;5.35;55.14
41688;BME280;27371;42.686;23.362;2023-04-28T03:52:48;163592.97;;;5.35;55.28
41688;BME280;27371;42.686;23.362;2023-04-28T03:55:14;163619.56;;;5.46;54.91
41688;BME280;27371;42.686;23.362;2023-04-28T03:57:39;163618.25;;;5.45;54.50
41688;BME280;27371;42.686;23.362;2023-04-28T04:00:06;163619.56;;;5.46;54.46
41688;BME280;27371;42.686;23.362;2023-04-28T04:02:31;163639.56;;;5.53;54.46
41688;BME280;27371;42.686;23.362;2023-04-28T04:04:57;163664.91;;;5.63;53.93
41688;BME280;27371;42.686;23.362;2023-04-28T04:07:22;163687.53;;;5.72;53.98
41688;BME280;27371;42.686;23.362;2023-04-28T04:09:48;163808.84;;;6.18;53.33
41688;BME280;27371;42.686;23.362;2023-04-28T04:12:14;163962.09;;;6.77;51.15
41688;BME280;27371;42.686;23.362;2023-04-28T04:14:39;164075.47;;;7.21;50.32
41688;BME280;27371;42.686;23.362;2023-04-28T04:17:05;164200.81;;;7.69;48.26
41688;BME280;27371;42.686;23.362;2023-04-28T04:19:30;164299.53;;;8.07;46.93
41688;BME280;27371;42.686;23.362;2023-04-28T04:21:56;164376.94;;;8.36;46.31
41688;BME280;27371;42.686;23.362;2023-04-28T04:24:21;164494.44;;;8.81;45.27
41688;BME280;27371;42.686;23.362;2023-04-28T04:26:47;164658.66;;;9.44;43.96
41688;BME280;27371;42.686;23.362;2023-04-28T04:29:12;164824.28;;;10.08;42.78
41688;BME280;27371;42.686;23.362;2023-04-28T04:31:38;164972.69;;;10.64;41.16
41688;BME280;27371;42.686;23.362;2023-04-28T04:34:03;165098.28;;;11.12;39.75
41688;BME280;27371;42.686;23.362;2023-04-28T04:36:29;165193.19;;;11.49;38.64
41688;BME280;27371;42.686;23.362;2023-04-28T04:38:54;165240.03;;;11.67;37.63
41688;BME280;27371;42.686;23.362;2023-04-28T04:41:20;165274.81;;;11.80;37.47
41688;BME280;27371;42.686;23.362;2023-04-28T04:43:46;165357.75;;;12.12;36.96
41688;BME280;27371;42.686;23.362;2023-04-28T04:46:12;165381.81;;;12.21;36.28
41688;BME280;27371;42.686;23.362;2023-04-28T04:48:37;165541.00;;;12.82;35.88
41688;BME280;27371;42.686;23.362;2023-04-28T04:51:03;165602.59;;;13.05;35.17
41688;BME280;27371;42.686;23.362;2023-04-28T04:53:28;165685.66;;;13.37;35.05
41688;BME280;27371;42.686;23.362;2023-04-28T04:55:54;165724.44;;;13.52;34.24
41688;BME280;27371;42.686;23.362;2023-04-28T04:58:19;165664.22;;;13.29;33.74
41688;BME280;27371;42.686;23.362;2023-04-28T05:00:45;165715.09;;;13.48;34.24
41688;BME280;27371;42.686;23.362;2023-04-28T05:03:10;165685.66;;;13.37;33.95
41688;BME280;27371;42.686;23.362;2023-04-28T05:05:36;165551.75;;;12.86;34.36
41688;BME280;27371;42.686;23.362;2023-04-28T05:08:02;165458.09;;;12.50;35.20
41688;BME280;27371;42.686;23.362;2023-04-28T05:10:28;165464.78;;;12.53;35.31
41688;BME280;27371;42.686;23.362;2023-04-28T05:12:53;165491.56;;;12.63;35.38
41688;BME280;27371;42.686;23.362;2023-04-28T05:15:19;165471.47;;;12.55;35.17
41688;BME280;27371;42.686;23.362;2023-04-28T05:17:44;165403.22;;;12.29;34.99
41688;BME280;27371;42.686;23.362;2023-04-28T05:20:10;165352.38;;;12.10;35.24
41688;BME280;27371;42.686;23.362;2023-04-28T05:22:35;165376.50;;;12.19;35.49
41688;BME280;27371;42.686;23.362;2023-04-28T05:25:01;165321.63;;;11.98;35.21
41688;BME280;27371;42.686;23.362;2023-04-28T05:27:26;165277.47;;;11.81;36.06
41688;BME280;27371;42.686;23.362;2023-04-28T05:29:52;165320.31;;;11.97;35.76
41688;BME280;27371;42.686;23.362;2023-04-28T05:32:17;165314.94;;;11.95;35.71
41688;BME280;27371;42.686;23.362;2023-04-28T05:34:43;165288.13;;;11.85;35.99
41688;BME280;27371;42.686;23.362;2023-04-28T05:37:08;165285.47;;;11.84;36.24
41688;BME280;27371;42.686;23.362;2023-04-28T05:39:34;165264.09;;;11.76;36.05
41688;BME280;27371;42.686;23.362;2023-04-28T05:41:59;165285.47;;;11.84;37.37
41688;BME280;27371;42.686;23.362;2023-04-28T05:44:24;165261.41;;;11.75;36.79
41688;BME280;27371;42.686;23.362;2023-04-28T05:46:51;165234.66;;;11.65;36.53
41688;BME280;27371;42.686;23.362;2023-04-28T05:49:16;165210.63;;;11.55;36.77
41688;BME280;27371;42.686;23.362;2023-04-28T05:51:42;165162.47;;;11.37;36.95
41688;BME280;27371;42.686;23.362;2023-04-28T05:54:08;165071.53;;;11.02;37.43
41688;BME280;27371;42.686;23.362;2023-04-28T05:56:34;165095.63;;;11.11;37.23
41688;BME280;27371;42.686;23.362;2023-04-28T05:58:59;165066.22;;;11.00;37.53
41688;BME280;27371;42.686;23.362;2023-04-28T06:01:28;165050.16;;;10.94;38.27
41688;BME280;27371;42.686;23.362;2023-04-28T06:03:54;165083.59;;;11.07;38.23
41688;BME280;27371;42.686;23.362;2023-04-28T06:06:22;165070.22;;;11.02;38.20
41688;BME280;27371;42.686;23.362;2023-04-28T06:08:47;165159.81;;;11.36;37.50
41688;BME280;27371;42.686;23.362;2023-04-28T06:11:13;165199.88;;;11.51;37.11
41688;BME280;27371;42.686;23.362;2023-04-28T06:13:38;165167.81;;;11.39;36.66
41688;BME280;27371;42.686;23.362;2023-04-28T06:16:04;165241.34;;;11.67;36.88
41688;BME280;27371;42.686;23.362;2023-04-28T06:18:30;165270.78;;;11.78;36.92
41688;BME280;27371;42.686;23.362;2023-04-28T06:20:57;165219.97;;;11.59;36.45
41688;BME280;27371;42.686;23.362;2023-04-28T06:23:22;165302.91;;;11.91;36.88
41688;BME280;27371;42.686;23.362;2023-04-28T06:25:48;165332.38;;;12.02;36.66
41688;BME280;27371;42.686;23.362;2023-04-28T06:28:13;165348.41;;;12.08;36.55
41688;BME280;27371;42.686;23.362;2023-04-28T06:30:39;165420.63;;;12.36;36.15
41688;BME280;27371;42.686;23.362;2023-04-28T06:33:05;165421.97;;;12.36;36.15
41688;BME280;27371;42.686;23.362;2023-04-28T06:35:31;165424.63;;;12.37;35.45
41688;BME280;27371;42.686;23.362;2023-04-28T06:38:01;165450.06;;;12.47;35.75
41688;BME280;27371;42.686;23.362;2023-04-28T06:40:26;165389.88;;;12.24;35.90
41688;BME280;27371;42.686;23.362;2023-04-28T06:42:52;165436.69;;;12.42;35.58
41688;BME280;27371;42.686;23.362;2023-04-28T06:45:17;165416.59;;;12.34;35.53
41688;BME280;27371;42.686;23.362;2023-04-28T06:47:43;165480.81;;;12.59;34.86
41688;BME280;27371;42.686;23.362;2023-04-28T06:50:09;165460.75;;;12.51;34.85
41688;BME280;27371;42.686;23.362;2023-04-28T06:52:34;165484.84;;;12.60;35.20
41688;BME280;27371;42.686;23.362;2023-04-28T06:55:00;165454.03;;;12.48;35.38
41688;BME280;27371;42.686;23.362;2023-04-28T06:57:26;165427.31;;;12.38;36.12
41688;BME280;27371;42.686;23.362;2023-04-28T06:59:51;165508.91;;;12.69;35.92
41688;BME280;27371;42.686;23.362;2023-04-28T07:02:17;165545.03;;;12.83;35.32
41688;BME280;27371;42.686;23.362;2023-04-28T07:04:42;165563.81;;;12.90;34.64
41688;BME280;27371;42.686;23.362;2023-04-28T07:07:08;165545.03;;;12.83;34.39
41688;BME280;27371;42.686;23.362;2023-04-28T07:09:34;165578.53;;;12.96;35.19
41688;BME280;27371;42.686;23.362;2023-04-28T07:12:00;165606.63;;;13.07;33.81
41688;BME280;27371;42.686;23.362;2023-04-28T07:14:25;165585.22;;;12.99;34.84
41688;BME280;27371;42.686;23.362;2023-04-28T07:16:51;165613.31;;;13.09;35.11
41688;BME280;27371;42.686;23.362;2023-04-28T07:19:17;165615.97;;;13.10;35.06
41688;BME280;27371;42.686;23.362;2023-04-28T07:21:42;165637.41;;;13.19;34.92
41688;BME280;27371;42.686;23.362;2023-04-28T07:24:08;165615.97;;;13.10;34.09
41688;BME280;27371;42.686;23.362;2023-04-28T07:26:34;165668.22;;;13.30;33.93
41688;BME280;27371;42.686;23.362;2023-04-28T07:28:59;165670.88;;;13.31;33.84
41688;BME280;27371;42.686;23.362;2023-04-28T07:31:25;165700.38;;;13.43;33.33
41688;BME280;27371;42.686;23.362;2023-04-28T07:33:51;165699.00;;;13.42;33.80
41688;BME280;27371;42.686;23.362;2023-04-28T07:36:16;165713.72;;;13.48;32.45
41688;BME280;27371;42.686;23.362;2023-04-28T07:38:41;165747.19;;;13.61;32.04
41688;BME280;27371;42.686;23.362;2023-04-28T07:41:07;165740.50;;;13.58;31.88
41688;BME280;27371;42.686;23.362;2023-04-28T07:43:32;165695.00;;;13.41;31.87
41688;BME280;27371;42.686;23.362;2023-04-28T07:45:58;165744.53;;;13.59;32.07
41688;BME280;27371;42.686;23.362;2023-04-28T07:48:23;165790.03;;;13.77;32.18
41688;BME280;27371;42.686;23.362;2023-04-28T07:50:50;165840.91;;;13.96;31.89
41688;BME280;27371;42.686;23.362;2023-04-28T07:53:15;165803.44;;;13.82;31.30
41688;BME280;27371;42.686;23.362;2023-04-28T07:55:41;165873.03;;;14.09;31.44
41688;BME280;27371;42.686;23.362;2023-04-28T07:58:09;165937.31;;;14.33;30.95
41688;BME280;27371;42.686;23.362;2023-04-28T08:00:35;165936.00;;;14.33;30.67
41688;BME280;27371;42.686;23.362;2023-04-28T08:03:00;165958.75;;;14.41;29.81
41688;BME280;27371;42.686;23.362;2023-04-28T08:05:26;165925.28;;;14.29;30.36
41688;BME280;27371;42.686;23.362;2023-04-28T08:07:51;165932.00;;;14.31;30.44
41688;BME280;27371;42.686;23.362;2023-04-28T08:10:17;165934.66;;;14.32;30.13
41688;BME280;27371;42.686;23.362;2023-04-28T08:12:43;165973.47;;;14.47;29.96
41688;BME280;27371;42.686;23.362;2023-04-28T08:15:10;165949.38;;;14.38;30.06
41688;BME280;27371;42.686;23.362;2023-04-28T08:17:36;165942.69;;;14.35;29.84
41688;BME280;27371;42.686;23.362;2023-04-28T08:20:02;165918.59;;;14.26;30.23
41688;BME280;27371;42.686;23.362;2023-04-28T08:22:27;165910.56;;;14.23;29.94
41688;BME280;27371;42.686;23.362;2023-04-28T08:24:53;165996.34;;;14.56;30.14
41688;BME280;27371;42.686;23.362;2023-04-28T08:27:18;166051.22;;;14.77;29.74
41688;BME280;27371;42.686;23.362;2023-04-28T08:29:44;165999.00;;;14.57;29.80
41688;BME280;27371;42.686;23.362;2023-04-28T08:32:09;165993.63;;;14.55;30.08
41688;BME280;27371;42.686;23.362;2023-04-28T08:34:35;166040.53;;;14.73;29.58
41688;BME280;27371;42.686;23.362;2023-04-28T08:37:00;166041.88;;;14.73;28.81
41688;BME280;27371;42.686;23.362;2023-04-28T08:39:26;166016.38;;;14.63;29.05
41688;BME280;27371;42.686;23.362;2023-04-28T08:41:52;166068.69;;;14.83;28.86
41688;BME280;27371;42.686;23.362;2023-04-28T08:44:18;166048.56;;;14.76;28.24
41688;BME280;27371;42.686;23.362;2023-04-28T08:46:45;166053.94;;;14.78;28.23
41688;BME280;27371;42.686;23.362;2023-04-28T08:49:17;166063.31;;;14.81;28.82
41688;BME280;27371;42.686;23.362;2023-04-28T08:51:45;166082.03;;;14.88;28.11
41688;BME280;27371;42.686;23.362;2023-04-28T08:54:14;166100.81;;;14.96;28.30
41688;BME280;27371;42.686;23.362;2023-04-28T08:56:45;166151.72;;;15.15;28.66
41688;BME280;27371;42.686;23.362;2023-04-28T08:59:11;166185.22;;;15.28;28.70
41688;BME280;27371;42.686;23.362;2023-04-28T09:01:39;166173.16;;;15.23;28.12
41688;BME280;27371;42.686;23.362;2023-04-28T09:04:05;166103.47;;;14.97;28.54
41688;BME280;27371;42.686;23.362;2023-04-28T09:06:35;166147.72;;;15.13;28.69
41688;BME280;27371;42.686;23.362;2023-04-28T09:11:56;166187.88;;;15.29;28.47
41688;BME280;27371;42.686;23.362;2023-04-28T09:14:29;166198.63;;;15.33;28.09
41688;BME280;27371;42.686;23.362;2023-04-28T09:16:55;166171.81;;;15.23;28.46
41688;BME280;27371;42.686;23.362;2023-04-28T09:19:21;166147.72;;;15.13;28.59
41688;BME280;27371;42.686;23.362;2023-04-28T09:21:56;166114.22;;;15.01;28.47
41688;BME280;27371;42.686;23.362;2023-04-28T09:24:29;166114.22;;;15.01;28.40
41688;BME280;27371;42.686;23.362;2023-04-28T09:26:55;166153.03;;;15.15;28.32
41688;BME280;27371;42.686;23.362;2023-04-28T09:29:21;166167.78;;;15.21;28.20
41688;BME280;27371;42.686;23.362;2023-04-28T09:31:47;166226.72;;;15.44;28.00
41688;BME280;27371;42.686;23.362;2023-04-28T09:34:12;166261.59;;;15.57;28.38
41688;BME280;27371;42.686;23.362;2023-04-28T09:36:38;166288.41;;;15.67;27.40
41688;BME280;27371;42.686;23.362;2023-04-28T09:39:03;166283.03;;;15.65;27.46
41688;BME280;27371;42.686;23.362;2023-04-28T09:41:42;166280.38;;;15.64;28.13
41688;BME280;27371;42.686;23.362;2023-04-28T09:44:15;166288.41;;;15.67;27.30
41688;BME280;27371;42.686;23.362;2023-04-28T09:46:44;166289.72;;;15.68;27.40
41688;BME280;27371;42.686;23.362;2023-04-28T09:49:11;166288.41;;;15.67;27.57
41688;BME280;27371;42.686;23.362;2023-04-28T09:51:37;166285.75;;;15.66;27.76
41688;BME280;27371;42.686;23.362;2023-04-28T09:54:04;166308.56;;;15.75;27.38
41688;BME280;27371;42.686;23.362;2023-04-28T09:56:31;166330.00;;;15.83;27.00
41688;BME280;27371;42.686;23.362;2023-04-28T09:58:58;166331.34;;;15.84;26.79
41688;BME280;27371;42.686;23.362;2023-04-28T10:01:24;166356.78;;;15.93;27.36
41688;BME280;27371;42.686;23.362;2023-04-28T10:03:52;166383.63;;;16.03;27.35
41688;BME280;27371;42.686;23.362;2023-04-28T10:06:19;166389.00;;;16.06;26.44
41688;BME280;27371;42.686;23.362;2023-04-28T10:08:45;166367.53;;;15.97;25.91
41688;BME280;27371;42.686;23.362;2023-04-28T10:11:14;166315.28;;;15.77;25.86
41688;BME280;27371;42.686;23.362;2023-04-28T10:13:41;166315.28;;;15.77;26.29
41688;BME280;27371;42.686;23.362;2023-04-28T10:16:09;166313.94;;;15.77;26.37
41688;BME280;27371;42.686;23.362;2023-04-28T10:18:36;166347.41;;;15.90;26.13
41688;BME280;27371;42.686;23.362;2023-04-28T10:21:02;166323.31;;;15.80;25.80
41688;BME280;27371;42.686;23.362;2023-04-28T10:26:13;166292.50;;;15.69;27.04
41688;BME280;27371;42.686;23.362;2023-04-28T10:28:50;166253.53;;;15.54;26.42
41688;BME280;27371;42.686;23.362;2023-04-28T10:31:20;166265.63;;;15.58;25.94
41688;BME280;27371;42.686;23.362;2023-04-28T10:33:47;166217.38;;;15.40;26.52
41688;BME280;27371;42.686;23.362;2023-04-28T10:36:48;166218.69;;;15.41;26.45
41688;BME280;27371;42.686;23.362;2023-04-28T10:39:19;166224.06;;;15.43;26.02
41688;BME280;27371;42.686;23.362;2023-04-28T10:41:45;166222.75;;;15.42;25.81
41688;BME280;27371;42.686;23.362;2023-04-28T10:44:41;166202.63;;;15.34;25.91
41688;BME280;27371;42.686;23.362;2023-04-28T10:47:08;166179.84;;;15.26;25.54
41688;BME280;27371;42.686;23.362;2023-04-28T10:50:09;166220.06;;;15.41;25.53
41688;BME280;27371;42.686;23.362;2023-04-28T10:55:26;166244.19;;;15.50;26.15
41688;BME280;27371;42.686;23.362;2023-04-28T11:00:40;166241.53;;;15.49;26.08
41688;BME280;27371;42.686;23.362;2023-04-28T11:03:06;166220.06;;;15.41;25.14
41688;BME280;27371;42.686;23.362;2023-04-28T11:05:32;166199.97;;;15.33;25.30
41688;BME280;27371;42.686;23.362;2023-04-28T11:13:34;166166.44;;;15.21;26.22
41688;BME280;27371;42.686;23.362;2023-04-28T11:16:03;166232.09;;;15.46;26.02
41688;BME280;27371;42.686;23.362;2023-04-28T11:18:47;166233.44;;;15.46;25.47
41688;BME280;27371;42.686;23.362;2023-04-28T11:21:13;166249.56;;;15.52;25.71
41688;BME280;27371;42.686;23.362;2023-04-28T11:23:39;166261.59;;;15.57;25.56
41688;BME280;27371;42.686;23.362;2023-04-28T11:26:05;166249.56;;;15.52;25.13
41688;BME280;27371;42.686;23.362;2023-04-28T11:28:30;166233.44;;;15.46;24.78
41688;BME280;27371;42.686;23.362;2023-04-28T11:31:15;166224.06;;;15.43;24.57
41688;BME280;27371;42.686;23.362;2023-04-28T11:33:59;166198.63;;;15.33;24.40
41688;BME280;27371;42.686;23.362;2023-04-28T11:38:53;166261.59;;;15.57;25.03
41688;BME280;27371;42.686;23.362;2023-04-28T11:41:18;166279.03;;;15.64;25.74
41688;BME280;27371;42.686;23.362;2023-04-28T11:43:44;166272.31;;;15.61;26.05
41688;BME280;27371;42.686;23.362;2023-04-28T11:46:15;166325.97;;;15.81;25.81
41688;BME280;27371;42.686;23.362;2023-04-28T11:48:40;166335.38;;;15.85;26.86
41688;BME280;27371;42.686;23.362;2023-04-28T11:51:06;166332.69;;;15.84;26.40
41688;BME280;27371;42.686;23.362;2023-04-28T11:53:42;166317.94;;;15.78;26.21
41688;BME280;27371;42.686;23.362;2023-04-28T11:56:08;166328.69;;;15.83;25.24
41688;BME280;27371;42.686;23.362;2023-04-28T11:58:34;166331.34;;;15.84;25.42
41688;BME280;27371;42.686;23.362;2023-04-28T12:01:09;166315.28;;;15.77;25.67
41688;BME280;27371;42.686;23.362;2023-04-28T12:03:44;166339.38;;;15.87;25.77
41688;BME280;27371;42.686;23.362;2023-04-28T12:06:10;166356.78;;;15.93;26.33
41688;BME280;27371;42.686;23.362;2023-04-28T12:08:35;166399.69;;;16.10;26.07
41688;BME280;27371;42.686;23.362;2023-04-28T12:11:11;166431.88;;;16.22;26.03
41688;BME280;27371;42.686;23.362;2023-04-28T12:13:38;166439.94;;;16.25;25.77
41688;BME280;27371;42.686;23.362;2023-04-28T12:16:05;166458.72;;;16.32;26.03
41688;BME280;27371;42.686;23.362;2023-04-28T12:18:34;166469.41;;;16.36;26.42
41688;BME280;27371;42.686;23.362;2023-04-28T12:21:04;166477.47;;;16.39;26.33
41688;BME280;27371;42.686;23.362;2023-04-28T12:23:34;166497.59;;;16.47;26.67
41688;BME280;27371;42.686;23.362;2023-04-28T12:26:01;166498.91;;;16.47;27.38
41688;BME280;27371;42.686;23.362;2023-04-28T12:31:17;166466.75;;;16.35;26.79
41688;BME280;27371;42.686;23.362;2023-04-28T12:33:43;166449.28;;;16.29;26.66
41688;BME280;27371;42.686;23.362;2023-04-28T12:36:09;166429.16;;;16.21;27.09
41688;BME280;27371;42.686;23.362;2023-04-28T12:38:35;166462.72;;;16.34;26.80
41688;BME280;27371;42.686;23.362;2023-04-28T12:41:02;166469.41;;;16.36;26.31
41688;BME280;27371;42.686;23.362;2023-04-28T12:43:28;166476.13;;;16.39;25.92
41688;BME280;27371;42.686;23.362;2023-04-28T12:45:54;166476.13;;;16.39;26.41
41688;BME280;27371;42.686;23.362;2023-04-28T12:48:20;166407.78;;;16.13;26.65
41688;BME280;27371;42.686;23.362;2023-04-28T12:50:48;166417.16;;;16.16;26.60
41688;BME280;27371;42.686;23.362;2023-04-28T12:53:14;166472.06;;;16.37;26.81
41688;BME280;27371;42.686;23.362;2023-04-28T12:55:40;166511.00;;;16.52;27.17
41688;BME280;27371;42.686;23.362;2023-04-28T12:58:06;166551.19;;;16.67;27.19
41688;BME280;27371;42.686;23.362;2023-04-28T13:00:31;166497.59;;;16.47;27.09
41688;BME280;27371;42.686;23.362;2023-04-28T13:02:57;166509.66;;;16.52;26.95